createdAt,value
2018-06-12T00:01:49.629Z,98991.31
2018-06-12T00:04:19.672Z,98989.88
2018-06-12T00:06:49.886Z,98992.61
2018-06-12T00:09:19.943Z,98985.62
2018-06-12T00:11:50.124Z,98980.50
2018-06-12T00:14:21.191Z,98980.63
2018-06-12T00:16:51.266Z,98983.56
2018-06-12T00:19:21.507Z,98989.63
2018-06-12T00:21:51.458Z,98979.16
2018-06-12T00:24:21.529Z,98973.86
2018-06-12T00:26:51.653Z,98971.64
2018-06-12T00:29:21.600Z,98965.09
2018-06-12T00:31:51.654Z,98960.45
2018-06-12T00:34:21.764Z,98958.28
2018-06-12T00:36:52.009Z,98951.69
2018-06-12T00:39:22.053Z,98941.91
2018-06-12T00:41:51.943Z,98947.13
2018-06-12T00:44:21.972Z,98940.31
2018-06-12T00:46:53.108Z,98940.03
2018-06-12T00:49:23.029Z,98940.03
2018-06-12T00:51:52.948Z,98934.77
2018-06-12T00:54:24.139Z,98931.67
2018-06-12T00:57:04.920Z,98925.97
2018-06-12T00:59:34.942Z,98914.02
2018-06-12T01:02:06.412Z,98916.88
2018-06-12T01:04:37.073Z,98904.22
2018-06-12T01:07:07.084Z,98901.01
2018-06-12T01:09:37.794Z,98894.63
2018-06-12T01:12:07.967Z,98887.66
2018-06-12T01:14:37.936Z,98885.34
2018-06-12T01:17:08.279Z,98882.40
2018-06-12T01:19:38.525Z,98879.20
2018-06-12T01:22:08.456Z,98870.73
2018-06-12T01:24:38.703Z,98870.27
2018-06-12T01:27:08.841Z,98865.83
2018-06-12T01:29:39.043Z,98864.84
2018-06-12T01:32:09.144Z,98861.73
2018-06-12T01:34:39.175Z,98860.00
2018-06-12T01:37:09.516Z,98854.08
2018-06-12T01:39:39.748Z,98860.41
2018-06-12T01:42:09.992Z,98864.27
2018-06-12T01:44:41.224Z,98864.31
2018-06-12T01:47:11.247Z,98864.48
2018-06-12T01:49:41.130Z,98864.99
2018-06-12T01:52:11.499Z,98863.50
2018-06-12T01:54:41.622Z,98871.16
2018-06-12T01:57:12.490Z,98873.43
2018-06-12T01:59:42.792Z,98868.28
2018-06-12T02:02:13.134Z,98861.34
2018-06-12T02:04:43.682Z,98855.88
2018-06-12T02:07:14.000Z,98858.41
2018-06-12T02:09:44.534Z,98854.62
2018-06-12T02:12:14.753Z,98855.25
2018-06-12T02:14:44.729Z,98854.14
2018-06-12T02:17:14.998Z,98840.17
2018-06-12T02:19:45.298Z,98848.53
2018-06-12T02:22:15.551Z,98843.25
2018-06-12T02:24:45.599Z,98848.59
2018-06-12T02:27:15.744Z,98845.92
2018-06-12T02:29:46.013Z,98840.58
2018-06-12T02:32:17.184Z,98833.28
2018-06-12T02:34:47.296Z,98836.66
2018-06-12T02:37:17.563Z,98845.75
2018-06-12T02:39:47.585Z,98851.09
2018-06-12T02:42:18.068Z,98855.24
2018-06-12T02:44:48.079Z,98851.19
2018-06-12T02:47:18.628Z,98852.39
2018-06-12T02:49:48.708Z,98849.72
2018-06-12T02:52:18.795Z,98849.23
2018-06-12T02:54:48.870Z,98848.52
2018-06-12T02:57:18.811Z,98844.55
2018-06-12T02:59:49.011Z,98850.11
2018-06-12T03:02:19.043Z,98846.02
2018-06-12T03:04:49.017Z,98844.81
2018-06-12T03:07:19.165Z,98845.03
2018-06-12T03:09:49.525Z,98843.70
2018-06-12T03:12:19.884Z,98847.48
2018-06-12T03:14:49.990Z,98848.33
2018-06-12T03:17:20.055Z,98841.78
2018-06-12T03:19:50.200Z,98837.36
2018-06-12T03:22:20.384Z,98827.57
2018-06-12T03:24:50.379Z,98818.05
2018-06-12T03:27:20.569Z,98809.88
2018-06-12T03:29:50.815Z,98803.52
2018-06-12T03:32:20.992Z,98786.14
2018-06-12T03:34:51.085Z,98786.53
2018-06-12T03:37:20.977Z,98776.42
2018-06-12T03:39:50.925Z,98746.27
2018-06-12T03:42:21.214Z,98737.91
2018-06-12T03:44:51.289Z,98758.95
2018-06-12T03:47:21.298Z,98785.17
2018-06-12T03:49:52.336Z,98810.64
2018-06-12T03:52:26.340Z,98833.93
2018-06-12T03:54:56.584Z,98846.06
2018-06-12T03:57:26.732Z,98852.47
2018-06-12T03:59:56.678Z,98860.11
2018-06-12T04:02:26.944Z,98873.79
2018-06-12T04:04:58.253Z,98878.15
2018-06-12T04:07:28.564Z,98890.23
2018-06-12T04:09:58.477Z,98907.55
2018-06-12T04:12:28.586Z,98910.83
2018-06-12T04:14:58.785Z,98907.36
2018-06-12T04:17:28.904Z,98906.17
2018-06-12T04:19:59.051Z,98909.22
2018-06-12T04:22:29.062Z,98902.48
2018-06-12T04:24:59.059Z,98908.73
2018-06-12T04:27:29.103Z,98913.71
2018-06-12T04:29:59.258Z,98914.61
2018-06-12T04:32:29.163Z,98919.94
2018-06-12T04:34:59.206Z,98920.31
2018-06-12T04:37:29.395Z,98922.75
2018-06-12T04:39:59.525Z,98932.80
2018-06-12T04:42:29.768Z,98933.54
2018-06-12T04:44:59.829Z,98946.15
2018-06-12T04:47:30.066Z,98941.17
2018-06-12T04:50:00.015Z,98942.52
2018-06-12T04:52:30.836Z,98945.17
2018-06-12T04:55:01.042Z,98948.08
2018-06-12T04:57:30.944Z,98944.08
2018-06-12T05:00:01.246Z,98945.16
2018-06-12T05:02:31.384Z,98944.55
2018-06-12T05:05:01.366Z,98941.52
2018-06-12T05:07:31.715Z,98944.02
2018-06-12T05:10:01.691Z,98941.10
2018-06-12T05:12:32.988Z,98946.19
2018-06-12T05:15:03.108Z,98948.23
2018-06-12T05:17:33.107Z,98953.08
2018-06-12T05:20:03.623Z,98954.13
2018-06-12T05:22:33.846Z,98955.60
2018-06-12T05:25:03.916Z,98962.76
2018-06-12T05:27:33.821Z,98957.66
2018-06-12T05:30:03.895Z,98957.04
2018-06-12T05:32:33.937Z,98957.77
2018-06-12T05:35:21.751Z,98968.74
2018-06-12T05:37:51.948Z,98965.70
2018-06-12T05:40:22.035Z,98971.41
2018-06-12T05:42:51.989Z,98972.19
2018-06-12T05:45:22.041Z,98976.55
2018-06-12T05:47:52.462Z,98972.67
2018-06-12T05:50:22.561Z,98974.56
2018-06-12T05:52:52.530Z,98982.19
2018-06-12T05:55:22.858Z,98987.53
2018-06-12T05:57:52.912Z,98992.26
2018-06-12T06:00:23.105Z,98989.71
2018-06-12T06:02:53.387Z,98992.00
2018-06-12T06:05:23.427Z,98997.94
2018-06-12T06:07:53.951Z,99000.24
2018-06-12T06:10:24.420Z,99000.24
2018-06-12T06:12:54.420Z,99004.86
2018-06-12T06:15:24.378Z,99008.99
2018-06-12T06:17:55.921Z,99005.00
2018-06-12T06:20:26.212Z,99006.59
2018-06-12T06:22:56.452Z,99009.91
2018-06-12T06:25:26.732Z,99016.94
2018-06-12T06:27:56.736Z,99021.98
2018-06-12T06:30:27.074Z,99019.69
2018-06-12T06:32:57.283Z,99023.69
2018-06-12T06:35:27.236Z,99021.86
2018-06-12T06:37:57.277Z,99019.43
2018-06-12T06:40:27.220Z,99027.91
2018-06-12T06:42:57.265Z,99030.33
2018-06-12T06:45:27.344Z,99031.05
2018-06-12T06:47:57.512Z,99038.52
2018-06-12T06:50:27.430Z,99038.25
2018-06-12T06:52:57.583Z,99034.06
2018-06-12T06:55:27.715Z,99038.41
2018-06-12T06:57:57.856Z,99037.86
2018-06-12T07:00:28.023Z,99045.38
2018-06-12T07:02:58.136Z,99040.37
2018-06-12T07:05:28.188Z,99043.77
2018-06-12T07:07:58.275Z,99051.39
2018-06-12T07:10:28.199Z,99046.94
2018-06-12T07:12:58.296Z,99051.27
2018-06-12T07:15:28.168Z,99046.48
2018-06-12T07:17:59.426Z,99045.27
2018-06-12T07:21:06.198Z,99052.08
2018-06-12T07:23:37.323Z,99053.42
2018-06-12T07:26:07.504Z,99055.44
2018-06-12T07:28:37.712Z,99057.91
2018-06-12T07:31:07.895Z,99057.94
2018-06-12T07:33:38.048Z,99060.27
2018-06-12T07:36:08.567Z,99066.11
2018-06-12T07:38:38.806Z,99068.87
2018-06-12T07:41:08.913Z,99068.19
2018-06-12T07:43:39.183Z,99059.39
2018-06-12T07:46:09.452Z,99065.04
2018-06-12T07:48:40.170Z,99058.91
2018-06-12T07:51:11.241Z,99058.13
2018-06-12T07:53:41.431Z,99059.81
2018-06-12T07:56:11.514Z,99057.11
2018-06-12T07:58:41.707Z,99063.52
2018-06-12T08:01:12.068Z,99057.17
2018-06-12T08:03:42.217Z,99053.92
2018-06-12T08:06:12.188Z,99052.17
2018-06-12T08:08:42.279Z,99049.50
2018-06-12T08:11:12.364Z,99055.65
2018-06-12T08:13:42.240Z,99055.38
2018-06-12T08:16:12.671Z,99055.38
2018-06-12T08:18:43.492Z,99060.02
2018-06-12T08:21:13.664Z,99058.83
2018-06-12T08:23:43.726Z,99054.63
2018-06-12T08:26:13.986Z,99056.90
2018-06-12T08:28:44.347Z,99061.84
2018-06-12T08:31:14.455Z,99059.70
2018-06-12T08:33:44.781Z,99064.23
2018-06-12T08:36:14.867Z,99054.33
2018-06-12T08:38:45.031Z,99060.16
2018-06-12T08:41:15.380Z,99061.94
2018-06-12T08:43:45.686Z,99067.62
2018-06-12T08:46:15.544Z,99066.28
2018-06-12T08:48:45.811Z,99066.28
2018-06-12T08:51:15.752Z,99070.91
2018-06-12T08:53:46.098Z,99069.17
2018-06-12T08:56:16.266Z,99071.85
2018-06-12T08:58:46.494Z,99079.36
2018-06-12T09:01:16.421Z,99076.88
2018-06-12T09:03:46.617Z,99073.97
2018-06-12T09:06:16.916Z,99066.47
2018-06-12T09:08:46.961Z,99066.24
2018-06-12T09:11:17.180Z,99072.27
2018-06-12T09:13:47.514Z,99072.62
2018-06-12T09:16:17.695Z,99082.30
2018-06-12T09:18:47.942Z,99077.15
2018-06-12T09:21:18.147Z,99084.41
2018-06-12T09:23:48.092Z,99083.75
2018-06-12T09:26:18.105Z,99085.59
2018-06-12T09:28:48.766Z,99091.58
2018-06-12T09:31:18.878Z,99091.55
2018-06-12T09:33:49.123Z,99097.62
2018-06-12T09:36:24.098Z,99100.02
2018-06-12T09:39:03.680Z,99104.89
2018-06-12T09:41:33.801Z,99100.95
2018-06-12T09:44:03.951Z,99099.84
2018-06-12T09:46:33.882Z,99097.19
2018-06-12T09:49:04.097Z,99108.35
2018-06-12T09:51:34.207Z,99101.16
2018-06-12T09:54:04.642Z,99106.99
2018-06-12T09:56:34.876Z,99110.06
2018-06-12T09:59:05.158Z,99112.78
2018-06-12T10:01:35.317Z,99117.87
2018-06-12T10:04:05.304Z,99104.39
2018-06-12T10:06:35.633Z,99110.77
2018-06-12T10:09:07.285Z,99104.80
2018-06-12T10:11:37.414Z,99104.73
2018-06-12T10:14:08.599Z,99106.31
2018-06-12T10:16:39.770Z,99106.08
2018-06-12T10:19:13.125Z,99099.23
2018-06-12T10:21:43.322Z,99109.87
2018-06-12T10:24:13.456Z,99116.47
2018-06-12T10:26:43.618Z,99109.86
2018-06-12T10:29:13.886Z,99111.05
2018-06-12T10:31:44.227Z,99106.81
2018-06-12T10:34:14.309Z,99104.80
2018-06-12T10:36:44.480Z,99106.58
2018-06-12T10:39:14.618Z,99106.48
2018-06-12T10:41:44.622Z,99112.03
2018-06-12T10:44:15.821Z,99114.97
2018-06-12T10:46:46.015Z,99113.05
2018-06-12T10:49:16.022Z,99113.86
2018-06-12T10:51:46.036Z,99106.00
2018-06-12T10:54:16.289Z,99104.97
2018-06-12T10:56:46.246Z,99112.56
2018-06-12T10:59:16.569Z,99103.66
2018-06-12T11:01:46.730Z,99099.59
2018-06-12T11:04:16.778Z,99102.63
2018-06-12T11:06:46.992Z,99111.93
2018-06-12T11:09:17.172Z,99106.33
2018-06-12T11:11:47.381Z,99101.27
2018-06-12T11:14:17.300Z,99106.66
2018-06-12T11:16:47.636Z,99098.55
2018-06-12T11:19:17.676Z,99092.44
2018-06-12T11:21:47.805Z,99093.23
2018-06-12T11:24:17.827Z,99092.17
2018-06-12T11:26:48.028Z,99088.17
2018-06-12T11:29:18.146Z,99089.59
2018-06-12T11:31:50.297Z,99097.00
2018-06-12T11:34:20.272Z,99096.78
2018-06-12T11:36:50.601Z,99093.09
2018-06-12T11:39:20.590Z,99086.11
2018-06-12T11:41:50.833Z,99090.27
2018-06-12T11:44:20.985Z,99098.20
2018-06-12T11:46:51.142Z,99100.84
2018-06-12T11:49:21.296Z,99096.94
2018-06-12T11:51:51.386Z,99100.57
2018-06-12T11:54:21.645Z,99101.30
2018-06-12T11:56:51.879Z,99094.95
2018-06-12T11:59:22.629Z,99113.72
2018-06-12T12:01:52.491Z,99099.88
2018-06-12T12:04:22.642Z,99090.98
2018-06-12T12:06:52.809Z,99088.83
2018-06-12T12:09:22.679Z,99090.83
2018-06-12T12:11:52.811Z,99096.14
2018-06-12T12:14:22.951Z,99090.83
2018-06-12T12:16:53.079Z,99098.33
2018-06-12T12:19:23.141Z,99089.85
2018-06-12T12:21:53.675Z,99080.19
2018-06-12T12:24:23.836Z,99071.09
2018-06-12T12:26:53.918Z,99082.30
2018-06-12T12:29:23.878Z,99077.88
2018-06-12T12:31:54.060Z,99081.08
2018-06-12T12:34:24.407Z,99076.17
2018-06-12T12:36:54.485Z,99085.80
2018-06-12T12:39:24.398Z,99089.81
2018-06-12T12:41:54.523Z,99086.73
2018-06-12T12:44:24.761Z,99100.45
2018-06-12T12:46:54.933Z,99083.66
2018-06-12T12:49:25.131Z,99091.48
2018-06-12T12:51:55.307Z,99091.80
2018-06-12T12:54:25.583Z,99089.71
2018-06-12T12:56:55.827Z,99097.28
2018-06-12T12:59:25.762Z,99095.13
2018-06-12T13:01:55.893Z,99095.99
2018-06-12T13:04:25.997Z,99087.60
2018-06-12T13:06:56.338Z,99091.61
2018-06-12T13:09:26.683Z,99082.28
2018-06-12T13:11:56.933Z,99086.20
2018-06-12T13:14:26.991Z,99075.41
2018-06-12T13:16:57.384Z,99063.83
2018-06-12T13:19:28.923Z,99068.80
2018-06-12T13:21:59.057Z,99078.34
2018-06-12T13:24:29.150Z,99077.28
2018-06-12T13:26:59.249Z,99057.66
2018-06-12T13:29:29.198Z,99062.02
2018-06-12T13:31:59.237Z,99064.97
2018-06-12T13:34:29.509Z,99056.56
2018-06-12T13:36:59.647Z,99048.77
2018-06-12T13:39:29.803Z,99060.19
2018-06-12T13:41:59.923Z,99065.97
2018-06-12T13:44:30.353Z,99061.26
2018-06-12T13:47:00.458Z,99049.02
2018-06-12T13:49:31.325Z,99065.69
2018-06-12T13:52:01.548Z,99054.64
2018-06-12T13:54:31.639Z,99052.45
2018-06-12T13:57:01.467Z,99052.65
2018-06-12T13:59:31.508Z,99051.16
2018-06-12T14:02:01.368Z,99034.41
2018-06-12T14:04:31.667Z,99039.27
2018-06-12T14:07:01.848Z,99037.11
2018-06-12T14:09:31.891Z,99038.14
2018-06-12T14:12:02.114Z,99032.55
2018-06-12T14:14:32.314Z,99031.77
2018-06-12T14:17:02.495Z,99027.95
2018-06-12T14:19:32.891Z,99025.31
2018-06-12T14:22:03.499Z,99027.95
2018-06-12T14:24:33.846Z,99025.81
2018-06-12T14:27:04.033Z,99027.02
2018-06-12T14:29:34.158Z,99030.59
2018-06-12T14:32:04.221Z,99024.75
2018-06-12T14:34:34.130Z,99030.03
2018-06-12T14:37:04.273Z,99019.26
2018-06-12T14:39:35.225Z,99016.66
2018-06-12T14:42:05.719Z,99018.02
2018-06-12T14:44:37.302Z,99017.83
2018-06-12T14:47:07.436Z,99022.75
2018-06-12T14:49:37.474Z,99029.42
2018-06-12T14:52:07.609Z,99016.80
2018-06-12T14:54:37.708Z,99023.78
2018-06-12T14:57:07.807Z,99015.23
2018-06-12T14:59:37.917Z,99011.28
2018-06-12T15:02:08.411Z,99011.87
2018-06-12T15:04:38.399Z,99011.66
2018-06-12T15:07:08.663Z,99006.72
2018-06-12T15:09:38.862Z,99008.98
2018-06-12T15:12:09.124Z,99010.53
2018-06-12T15:14:39.438Z,99009.98
2018-06-12T15:17:09.365Z,99002.34
2018-06-12T15:19:39.585Z,99008.42
2018-06-12T15:22:09.502Z,99014.29
2018-06-12T15:24:39.751Z,99010.11
2018-06-12T15:27:10.043Z,99009.55
2018-06-12T15:29:40.101Z,99009.16
2018-06-12T15:32:10.312Z,99009.11
2018-06-12T15:34:40.121Z,99006.15
2018-06-12T15:37:10.952Z,99009.72
2018-06-12T15:39:41.005Z,99009.86
2018-06-12T15:42:11.045Z,99013.59
2018-06-12T15:44:41.102Z,99012.78
2018-06-12T15:47:11.318Z,99008.97
2018-06-12T15:49:41.478Z,99007.15
2018-06-12T15:52:11.536Z,99008.86
2018-06-12T15:54:41.867Z,99005.52
2018-06-12T15:57:12.180Z,99003.34
2018-06-12T15:59:42.338Z,99007.72
2018-06-12T16:02:12.550Z,99014.94
2018-06-12T16:04:42.640Z,99018.87
2018-06-12T16:07:12.789Z,99003.27
2018-06-12T16:09:42.929Z,99008.14
2018-06-12T16:12:12.852Z,99013.27
2018-06-12T16:14:43.405Z,99016.18
2018-06-12T16:17:14.530Z,99016.79
2018-06-12T16:19:44.758Z,99014.19
2018-06-12T16:22:14.858Z,99009.83
2018-06-12T16:24:44.960Z,99005.77
2018-06-12T16:27:15.077Z,99000.49
2018-06-12T16:29:45.454Z,98995.83
2018-06-12T16:32:15.472Z,98993.45
2018-06-12T16:34:45.710Z,98993.66
2018-06-12T16:37:16.187Z,98989.58
2018-06-12T16:39:46.447Z,98979.02
2018-06-12T16:42:16.715Z,98989.06
2018-06-12T16:44:46.677Z,98989.13
2018-06-12T16:47:16.814Z,98987.41
2018-06-12T16:49:46.994Z,98992.25
2018-06-12T16:52:17.306Z,98995.34
2018-06-12T16:54:47.351Z,98995.16
2018-06-12T16:57:18.333Z,98987.80
2018-06-12T16:59:48.385Z,98993.97
2018-06-12T17:02:18.743Z,98992.89
2018-06-12T17:04:49.034Z,98996.11
2018-06-12T17:07:19.214Z,98996.58
2018-06-12T17:09:49.182Z,99003.57
2018-06-12T17:12:19.525Z,98998.80
2018-06-12T17:14:49.665Z,98992.61
2018-06-12T17:17:19.516Z,98990.03
2018-06-12T17:19:49.718Z,98984.34
2018-06-12T17:22:19.655Z,98978.88
2018-06-12T17:24:49.649Z,98974.91
2018-06-12T17:27:19.692Z,98987.13
2018-06-12T17:29:49.864Z,98982.41
2018-06-12T17:32:21.028Z,98982.92
2018-06-12T17:34:51.234Z,98983.02
2018-06-12T17:37:21.274Z,98980.34
2018-06-12T17:39:51.500Z,98977.89
2018-06-12T17:42:21.604Z,98977.23
2018-06-12T17:44:51.847Z,98978.81
2018-06-12T17:47:22.103Z,98981.38
2018-06-12T17:49:52.258Z,98982.69
2018-06-12T17:52:22.545Z,98979.33
2018-06-12T17:54:53.556Z,98990.51
2018-06-12T17:57:23.673Z,98991.33
2018-06-12T17:59:53.614Z,98991.20
2018-06-12T18:02:23.739Z,98984.33
2018-06-12T18:04:53.685Z,98984.28
2018-06-12T18:07:23.944Z,98983.81
2018-06-12T18:09:55.275Z,98973.17
2018-06-12T18:12:25.295Z,98972.52
2018-06-12T18:14:55.455Z,98976.65
2018-06-12T18:17:25.612Z,98981.58
2018-06-12T18:20:00.431Z,98986.02
2018-06-12T18:22:30.719Z,98984.52
2018-06-12T18:25:00.978Z,98989.11
2018-06-12T18:27:31.013Z,98989.59
2018-06-12T18:30:01.186Z,98990.74
2018-06-12T18:32:35.001Z,98992.84
2018-06-12T18:35:06.185Z,99000.81
2018-06-12T18:37:36.305Z,99003.02
2018-06-12T18:40:06.364Z,99011.11
2018-06-12T18:42:36.557Z,99009.42
2018-06-12T18:45:06.783Z,99013.94
2018-06-12T18:47:37.480Z,99012.39
2018-06-12T18:50:07.716Z,99023.45
2018-06-12T18:52:37.918Z,99023.28
2018-06-12T18:55:08.579Z,99031.30
2018-06-12T18:57:40.302Z,99030.02
2018-06-12T19:00:13.741Z,99031.44
2018-06-12T19:02:44.853Z,99043.42
2018-06-12T19:05:15.777Z,99047.31
2018-06-12T19:07:47.256Z,99049.91
2018-06-12T19:10:18.773Z,99048.67
2018-06-12T19:12:50.211Z,99053.14
2018-06-12T19:15:21.519Z,99062.56
2018-06-12T19:17:53.202Z,99069.73
2018-06-12T19:20:25.472Z,99082.74
2018-06-12T19:22:57.039Z,99086.56
2018-06-12T19:25:29.842Z,99092.83
2018-06-12T19:28:01.192Z,99093.00
2018-06-12T19:30:32.681Z,99099.98
2018-06-12T19:33:03.978Z,99101.01
2018-06-12T19:35:34.183Z,99101.78
2018-06-12T19:38:04.818Z,99102.03
2018-06-12T19:40:35.107Z,99106.83
2018-06-12T19:43:05.978Z,99105.20
2018-06-12T19:45:37.726Z,99107.43
2018-06-12T19:48:08.245Z,99119.66
2018-06-12T19:50:40.068Z,99113.69
2018-06-12T19:53:10.311Z,99106.91
2018-06-12T19:55:41.474Z,99108.95
2018-06-12T19:58:12.292Z,99113.41
2018-06-12T20:00:43.449Z,99109.45
2018-06-12T20:03:14.081Z,99105.84
2018-06-12T20:05:44.744Z,99104.00
2018-06-12T20:08:15.113Z,99103.87
2018-06-12T20:10:45.520Z,99097.36
2018-06-12T20:13:15.923Z,99103.44
2018-06-12T20:15:46.496Z,99095.53
2018-06-12T20:18:17.008Z,99089.03
2018-06-12T20:20:47.027Z,99088.66
2018-06-12T20:23:17.419Z,99077.02
2018-06-12T20:25:47.508Z,99078.66
2018-06-12T20:28:17.915Z,99074.72
2018-06-12T20:30:48.233Z,99074.01
2018-06-12T20:33:18.378Z,99076.98
2018-06-12T20:35:48.444Z,99070.86
2018-06-12T20:38:18.598Z,99075.62
2018-06-12T20:40:49.018Z,99066.79
2018-06-12T20:43:19.175Z,99076.77
2018-06-12T20:45:49.400Z,99072.95
2018-06-12T20:48:19.550Z,99066.00
2018-06-12T20:50:49.480Z,99065.75
2018-06-12T20:53:19.881Z,99068.86
2018-06-12T20:55:50.208Z,99065.11
2018-06-12T20:58:20.344Z,99060.74
2018-06-12T21:00:50.463Z,99058.69
2018-06-12T21:03:20.526Z,99058.76
2018-06-12T21:05:50.571Z,99061.20
2018-06-12T21:08:20.748Z,99057.02
2018-06-12T21:10:51.041Z,99068.05
2018-06-12T21:13:21.328Z,99079.58
2018-06-12T21:15:51.476Z,99089.41
2018-06-12T21:18:21.742Z,99094.88
2018-06-12T21:20:51.765Z,99087.50
2018-06-12T21:23:21.857Z,99081.00
2018-06-12T21:25:51.901Z,99089.05
2018-06-12T21:28:22.975Z,99082.02
2018-06-12T21:30:52.902Z,99092.22
2018-06-12T21:33:23.164Z,99093.94
2018-06-12T21:35:53.184Z,99096.47
2018-06-12T21:38:23.403Z,99092.23
2018-06-12T21:40:53.505Z,99089.70
2018-06-12T21:43:23.537Z,99081.56
2018-06-12T21:45:54.199Z,99086.25
2018-06-12T21:48:24.240Z,99084.17
2018-06-12T21:50:54.359Z,99082.60
2018-06-12T21:53:24.605Z,99088.02
2018-06-12T21:55:56.015Z,99083.15
2018-06-12T21:58:26.225Z,99082.81
2018-06-12T22:00:56.395Z,99088.48
2018-06-12T22:03:26.384Z,99087.77
2018-06-12T22:05:56.616Z,99080.86
2018-06-12T22:08:26.714Z,99082.53
2018-06-12T22:10:57.886Z,99084.59
2018-06-12T22:13:28.078Z,99089.08
2018-06-12T22:15:58.261Z,99094.40
2018-06-12T22:18:28.190Z,99091.94
2018-06-12T22:20:58.263Z,99092.20
2018-06-12T22:23:28.512Z,99087.23
2018-06-12T22:25:58.610Z,99085.17
2018-06-12T22:28:28.915Z,99084.66
2018-06-12T22:30:59.334Z,99088.88
2018-06-12T22:33:29.887Z,99097.94
2018-06-12T22:36:00.058Z,99095.75
2018-06-12T22:38:30.558Z,99101.19
2018-06-12T22:41:00.822Z,99100.23
2018-06-12T22:43:31.210Z,99099.12
2018-06-12T22:46:01.469Z,99103.77
2018-06-12T22:48:31.568Z,99104.98
2018-06-12T22:51:01.592Z,99106.53
2018-06-12T22:53:31.744Z,99104.73
2018-06-12T22:56:01.725Z,99107.91
2018-06-12T22:58:32.022Z,99105.58
2018-06-12T23:01:02.425Z,99106.91
2018-06-12T23:03:32.565Z,99111.05
2018-06-12T23:06:02.628Z,99107.02
2018-06-12T23:08:32.777Z,99106.02
2018-06-12T23:11:02.826Z,99109.85
2018-06-12T23:13:32.764Z,99116.02
2018-06-12T23:16:03.939Z,99114.05
2018-06-12T23:18:34.141Z,99111.88
2018-06-12T23:21:13.602Z,99108.09
2018-06-12T23:23:43.726Z,99113.31
2018-06-12T23:26:13.865Z,99114.00
2018-06-12T23:28:43.945Z,99117.87
2018-06-12T23:31:14.193Z,99121.45
2018-06-12T23:33:44.343Z,99122.89
2018-06-12T23:36:14.246Z,99120.08
2018-06-12T23:38:44.308Z,99121.72
2018-06-12T23:41:14.177Z,99123.05
2018-06-12T23:43:44.460Z,99117.60
2018-06-12T23:46:14.739Z,99117.44
2018-06-12T23:48:44.859Z,99118.61
2018-06-12T23:51:14.952Z,99115.95
2018-06-12T23:53:45.160Z,99113.67
2018-06-12T23:56:15.521Z,99110.22
2018-06-12T23:58:45.857Z,99108.41
